Time;durP1;ratioP1;P1;durP2;ratioP2;P2;SDS_P1;SDS_P2;PMS_P1;PMS_P2;Temp;Humidity;BMP_temperature;BMP_pressure;BME280_temperature;BME280_humidity;BME280_pressure;Samples;Min_cycle;Max_cycle;Signal;HPM_P1;HPM_P2
2023/04/05 00:01:24;;;;;;;3.33;1.13;;;22.00;99.90;;;;;;5077497;28;20665;-79
2023/04/05 00:03:57;;;;;;;3.63;1.08;;;21.90;99.90;;;;;;5083776;28;20223;-79
2023/04/05 00:06:28;;;;;;;2.70;0.98;;;21.80;99.90;;;;;;5079498;28;20203;-79
2023/04/05 00:08:59;;;;;;;4.97;1.10;;;21.70;99.90;;;;;;5081359;28;20215;-79
2023/04/05 00:11:31;;;;;;;4.57;1.08;;;21.60;99.90;;;;;;5087956;28;20588;-79
2023/04/05 00:14:05;;;;;;;4.55;1.25;;;21.50;99.90;;;;;;5088274;28;20227;-79
2023/04/05 00:16:36;;;;;;;3.08;1.20;;;21.40;99.90;;;;;;5078392;28;20594;-79
2023/04/05 00:19:07;;;;;;;2.85;1.00;;;21.30;99.90;;;;;;5088585;28;20199;-79
2023/04/05 00:21:39;;;;;;;3.50;1.17;;;21.30;99.90;;;;;;5081823;28;20246;-79
2023/04/05 00:24:14;;;;;;;3.35;1.17;;;21.30;99.90;;;;;;5078566;28;20246;-79
2023/04/05 00:26:46;;;;;;;4.22;1.15;;;21.30;99.90;;;;;;5083177;28;20206;-79
2023/04/05 00:29:19;;;;;;;5.70;1.00;;;21.30;99.90;;;;;;5087478;28;20196;-79
2023/04/05 00:31:50;;;;;;;6.32;1.23;;;21.20;99.90;;;;;;5077414;28;20212;-79
2023/04/05 00:34:21;;;;;;;5.63;1.23;;;21.30;99.90;;;;;;5077234;28;20204;-79
2023/04/05 00:36:52;;;;;;;3.20;1.00;;;21.20;99.90;;;;;;5076260;28;20227;-79
2023/04/05 00:39:23;;;;;;;3.10;0.90;;;21.20;99.90;;;;;;5071821;28;20544;-79
2023/04/05 00:41:54;;;;;;;4.28;0.85;;;21.10;99.90;;;;;;5085015;28;20195;-77
2023/04/05 00:44:27;;;;;;;6.43;1.15;;;21.20;99.90;;;;;;5073159;28;20302;-78
2023/04/05 00:46:59;;;;;;;5.63;1.60;;;21.20;99.90;;;;;;5087393;28;20196;-78
2023/04/05 00:49:31;;;;;;;4.90;1.00;;;21.30;99.90;;;;;;5087676;28;20654;-79
2023/04/05 00:52:03;;;;;;;5.13;1.17;;;21.40;99.90;;;;;;5069718;28;20199;-79
2023/04/05 00:54:34;;;;;;;2.80;0.90;;;21.50;99.90;;;;;;5072909;28;20206;-77
2023/04/05 00:57:06;;;;;;;3.72;1.10;;;21.50;99.90;;;;;;5070275;28;20241;-77
2023/04/05 00:59:39;;;;;;;4.90;1.17;;;21.50;99.90;;;;;;5070181;28;20227;-77
2023/04/05 01:02:17;;;;;;;4.72;1.02;;;21.50;99.90;;;;;;5070505;28;20196;-77
2023/04/05 01:04:55;;;;;;;3.50;0.88;;;21.50;99.90;;;;;;5078859;28;20230;-78
2023/04/05 01:07:32;;;;;;;4.90;1.17;;;21.50;99.90;;;;;;5089409;28;20214;-77
2023/04/05 01:10:04;;;;;;;8.95;1.48;;;21.50;99.90;;;;;;5091354;28;20194;-78
2023/04/05 01:12:37;;;;;;;4.45;0.90;;;21.60;99.90;;;;;;5085506;28;20214;-78
2023/04/05 01:15:11;;;;;;;6.32;1.10;;;21.60;99.90;;;;;;5070437;28;20741;-78
2023/04/05 01:17:43;;;;;;;3.85;1.00;;;21.60;99.90;;;;;;5070463;28;20204;-78
2023/04/05 01:20:15;;;;;;;4.60;1.10;;;21.60;99.90;;;;;;5073051;28;20200;-78
2023/04/05 01:23:19;;;;;;;4.53;0.98;;;21.60;99.90;;;;;;5070788;28;20199;-78
2023/04/05 01:26:18;;;;;;;5.13;1.13;;;21.70;99.90;;;;;;5075589;28;20230;-78
2023/04/05 01:29:06;;;;;;;4.57;1.00;;;21.90;99.90;;;;;;5065943;28;20199;-78
2023/04/05 01:31:47;;;;;;;7.72;1.40;;;22.10;99.90;;;;;;5070496;28;20192;-78
2023/04/05 01:34:27;;;;;;;4.60;1.00;;;22.20;99.90;;;;;;5070588;28;20269;-78
2023/04/05 01:37:03;;;;;;;4.13;1.13;;;22.40;99.90;;;;;;5072675;28;20218;-78
2023/04/05 01:39:37;;;;;;;5.47;1.20;;;22.40;99.90;;;;;;5090600;28;20554;-77
2023/04/05 01:42:18;;;;;;;7.53;1.10;;;22.50;99.90;;;;;;5090795;28;20244;-78
2023/04/05 01:44:49;;;;;;;7.82;1.00;;;22.50;99.90;;;;;;5088156;28;20219;-79
2023/04/05 01:47:23;;;;;;;6.55;1.27;;;22.50;99.90;;;;;;5070927;28;20204;-78
2023/04/05 01:49:54;;;;;;;4.63;0.85;;;22.40;99.90;;;;;;5070363;28;20749;-78
2023/04/05 01:52:25;;;;;;;3.25;0.90;;;22.40;99.90;;;;;;5072037;28;20658;-78
2023/04/05 01:54:56;;;;;;;6.22;1.27;;;22.60;99.90;;;;;;5070601;28;20207;-78
2023/04/05 01:57:27;;;;;;;4.03;1.00;;;22.90;99.90;;;;;;5070307;28;20202;-78
2023/04/05 02:00:01;;;;;;;3.10;0.80;;;23.20;99.90;;;;;;5081395;28;20564;-78
2023/04/05 02:02:34;;;;;;;5.40;1.08;;;23.30;99.90;;;;;;5082905;28;20257;-78
2023/04/05 02:05:05;;;;;;;4.85;1.23;;;23.40;99.90;;;;;;5080970;28;20512;-78
2023/04/05 02:07:39;;;;;;;2.90;0.73;;;23.40;99.90;;;;;;5087496;28;20642;-78
2023/04/05 02:10:11;;;;;;;2.55;0.90;;;23.40;99.90;;;;;;5077088;28;20278;-78
2023/04/05 02:12:42;;;;;;;5.60;1.02;;;23.50;99.90;;;;;;5075174;28;20204;-78
2023/04/05 02:15:13;;;;;;;2.20;0.90;;;23.50;99.90;;;;;;5084898;28;20232;-78
2023/04/05 02:17:46;;;;;;;1.95;0.70;;;23.50;99.90;;;;;;5073219;28;20203;-78
2023/04/05 02:20:18;;;;;;;5.63;1.38;;;23.60;99.90;;;;;;5073038;28;20211;-78
2023/04/05 02:22:50;;;;;;;5.97;0.85;;;23.40;99.90;;;;;;5089610;28;20203;-78
2023/04/05 02:25:21;;;;;;;4.93;1.10;;;23.50;99.90;;;;;;5090986;28;20227;-78
2023/04/05 02:27:52;;;;;;;6.40;0.90;;;23.50;99.90;;;;;;5075535;28;20192;-79
2023/04/05 02:30:23;;;;;;;3.78;1.20;;;23.50;99.90;;;;;;5080018;28;20199;-78
2023/04/05 02:32:56;;;;;;;3.97;0.90;;;23.50;99.90;;;;;;5089619;28;20195;-79
2023/04/05 02:35:28;;;;;;;1.77;0.50;;;23.50;99.90;;;;;;5073590;28;20204;-79
2023/04/05 02:38:00;;;;;;;2.35;0.70;;;23.50;99.90;;;;;;5070934;28;20330;-78
2023/04/05 02:40:32;;;;;;;2.08;0.80;;;23.50;99.90;;;;;;5083692;28;20655;-78
2023/04/05 02:43:03;;;;;;;3.08;1.35;;;23.60;99.90;;;;;;5094176;28;20199;-78
2023/04/05 02:45:34;;;;;;;3.53;0.90;;;23.80;99.90;;;;;;5093823;28;20665;-79
2023/04/05 02:48:06;;;;;;;3.15;0.88;;;24.00;99.90;;;;;;5094211;28;20195;-78
2023/04/05 02:50:37;;;;;;;2.05;0.65;;;24.20;99.90;;;;;;5094204;28;20192;-78
2023/04/05 02:53:08;;;;;;;5.65;0.93;;;24.30;99.90;;;;;;5094643;28;20191;-78
2023/04/05 02:55:40;;;;;;;3.45;0.98;;;24.40;99.90;;;;;;5092956;28;20276;-78
2023/04/05 02:58:13;;;;;;;2.95;0.95;;;24.50;99.90;;;;;;5083935;28;20199;-78
2023/04/05 03:00:43;;;;;;;6.82;1.00;;;24.60;99.90;;;;;;5074224;28;20205;-78
2023/04/05 03:03:16;;;;;;;3.63;1.05;;;24.60;99.90;;;;;;5079918;28;20249;-78
2023/04/05 03:05:48;;;;;;;4.60;1.10;;;24.50;99.90;;;;;;5093781;28;20241;-77
2023/04/05 03:08:22;;;;;;;4.07;1.10;;;24.60;99.90;;;;;;5094009;28;20195;-77
2023/04/05 03:10:54;;;;;;;4.00;1.23;;;24.60;99.90;;;;;;5093469;28;20199;-77
2023/04/05 03:13:25;;;;;;;3.80;1.00;;;24.70;99.90;;;;;;5073244;28;20199;-78
2023/04/05 03:15:57;;;;;;;4.45;0.95;;;24.90;99.90;;;;;;5072552;28;20199;-78
2023/04/05 03:18:30;;;;;;;3.97;0.85;;;24.90;99.90;;;;;;5073383;28;20260;-78
2023/04/05 03:21:03;;;;;;;4.55;0.93;;;24.90;99.90;;;;;;5073333;28;20199;-78
2023/04/05 03:23:34;;;;;;;4.70;1.00;;;25.00;99.90;;;;;;5073434;28;20204;-78
2023/04/05 03:26:06;;;;;;;8.38;1.65;;;25.10;99.90;;;;;;5072056;28;20227;-77
2023/04/05 03:28:37;;;;;;;5.50;1.08;;;25.20;99.90;;;;;;5073589;28;20270;-78
2023/04/05 03:31:08;;;;;;;5.35;0.95;;;25.20;99.90;;;;;;5073345;28;20196;-79
2023/04/05 03:33:41;;;;;;;5.70;1.15;;;25.30;99.90;;;;;;5073135;28;20663;-78
2023/04/05 03:36:15;;;;;;;5.55;1.25;;;25.20;99.90;;;;;;5073692;28;20216;-78
2023/04/05 03:38:48;;;;;;;2.85;0.80;;;25.20;99.90;;;;;;5073092;28;20674;-78
2023/04/05 03:41:19;;;;;;;3.08;1.05;;;25.30;99.90;;;;;;5085153;28;20278;-78
2023/04/05 03:43:51;;;;;;;7.20;1.15;;;25.30;99.90;;;;;;5093127;28;20200;-79
2023/04/05 03:46:22;;;;;;;6.28;1.35;;;25.30;99.90;;;;;;5090201;28;20234;-78
2023/04/05 03:48:55;;;;;;;4.20;1.00;;;25.30;99.90;;;;;;5092876;28;20592;-76
2023/04/05 03:51:26;;;;;;;4.43;0.90;;;25.40;99.90;;;;;;5093238;28;20585;-76
2023/04/05 03:53:58;;;;;;;3.80;0.90;;;25.30;99.90;;;;;;5085631;28;20609;-77
2023/04/05 03:56:34;;;;;;;9.43;1.40;;;25.40;99.90;;;;;;5079963;28;20567;-79
2023/04/05 03:59:05;;;;;;;5.20;0.90;;;25.30;99.90;;;;;;5091499;28;20580;-77
2023/04/05 04:01:36;;;;;;;5.97;1.25;;;25.30;99.90;;;;;;5090894;28;20214;-76
2023/04/05 04:04:09;;;;;;;4.82;0.93;;;25.20;99.90;;;;;;5079024;28;20204;-76
2023/04/05 04:06:40;;;;;;;3.60;0.73;;;25.10;99.90;;;;;;5088155;28;20227;-77
2023/04/05 04:09:11;;;;;;;5.07;0.95;;;25.10;99.90;;;;;;5075327;28;20196;-77
2023/04/05 04:11:42;;;;;;;3.65;0.90;;;25.10;99.90;;;;;;5075399;28;20192;-77
2023/04/05 04:14:13;;;;;;;4.57;0.60;;;25.10;99.90;;;;;;5084956;28;20235;-77
2023/04/05 04:16:45;;;;;;;5.35;1.05;;;25.10;99.90;;;;;;5083735;28;20196;-77
2023/04/05 04:19:20;;;;;;;3.58;0.82;;;25.00;99.90;;;;;;5074830;28;20206;-77
2023/04/05 04:21:52;;;;;;;4.38;1.00;;;25.10;99.90;;;;;;5074222;28;20230;-78
2023/04/05 04:24:25;;;;;;;7.10;1.10;;;25.10;99.90;;;;;;5076904;28;20218;-77
2023/04/05 04:26:56;;;;;;;4.75;1.15;;;25.10;99.90;;;;;;5088091;28;20302;-77
2023/04/05 04:29:30;;;;;;;5.88;0.98;;;25.10;99.90;;;;;;5095307;28;20557;-76
2023/04/05 04:32:01;;;;;;;3.00;1.00;;;25.20;99.90;;;;;;5094323;28;20206;-76
2023/04/05 04:34:37;;;;;;;5.22;0.95;;;25.20;99.90;;;;;;5090523;28;20195;-77
2023/04/05 04:37:08;;;;;;;4.35;1.08;;;25.20;99.90;;;;;;5086814;28;20693;-78
2023/04/05 04:39:43;;;;;;;2.92;0.80;;;25.20;99.90;;;;;;5085396;28;20198;-77
2023/04/05 04:42:18;;;;;;;2.55;0.50;;;25.20;99.90;;;;;;5092566;28;20194;-77
2023/04/05 04:44:50;;;;;;;4.30;0.88;;;25.10;99.90;;;;;;5084128;28;20194;-77
2023/04/05 04:47:21;;;;;;;4.82;0.80;;;25.10;99.90;;;;;;5086886;28;20229;-78
2023/04/05 04:49:56;;;;;;;4.03;0.93;;;25.10;99.90;;;;;;5090183;28;20195;-78
2023/04/05 04:52:27;;;;;;;2.85;0.88;;;25.00;99.90;;;;;;5086271;28;20223;-78
2023/04/05 04:54:58;;;;;;;2.15;0.80;;;25.00;99.90;;;;;;5072980;28;20200;-78
2023/04/05 04:57:29;;;;;;;2.95;0.80;;;25.00;99.90;;;;;;5072292;28;20230;-77
2023/04/05 05:00:00;;;;;;;2.65;0.77;;;24.90;99.90;;;;;;5071032;28;20199;-78
2023/04/05 05:02:31;;;;;;;4.28;0.77;;;24.90;99.90;;;;;;5072213;28;20235;-78
2023/04/05 05:05:04;;;;;;;2.50;0.70;;;24.90;99.90;;;;;;5073059;28;20210;-78
2023/04/05 05:07:36;;;;;;;2.58;0.70;;;24.90;99.90;;;;;;5085630;28;20698;-77
2023/04/05 05:10:07;;;;;;;2.05;0.80;;;24.90;99.90;;;;;;5092111;28;20199;-77
2023/04/05 05:12:40;;;;;;;3.30;0.82;;;24.90;99.90;;;;;;5073158;28;20219;-77
2023/04/05 05:15:12;;;;;;;4.55;0.70;;;24.90;99.90;;;;;;5072224;28;20242;-77
2023/04/05 05:17:43;;;;;;;1.73;0.50;;;24.80;99.90;;;;;;5072177;28;20215;-77
2023/04/05 05:20:17;;;;;;;2.05;0.65;;;24.80;99.90;;;;;;5072284;28;20195;-77
2023/04/05 05:22:48;;;;;;;1.88;0.70;;;24.70;99.90;;;;;;5083229;28;20200;-78
2023/04/05 05:25:19;;;;;;;3.08;0.68;;;24.80;99.90;;;;;;5092769;28;20200;-77
2023/04/05 05:27:52;;;;;;;2.70;0.68;;;24.90;99.90;;;;;;5084835;28;20564;-78
2023/04/05 05:30:24;;;;;;;3.92;0.80;;;24.90;99.90;;;;;;5071317;28;20203;-78
2023/04/05 05:32:57;;;;;;;2.72;0.70;;;24.90;99.90;;;;;;5075030;28;20205;-77
2023/04/05 05:35:30;;;;;;;3.90;0.70;;;24.80;99.90;;;;;;5090119;28;20199;-77
2023/04/05 05:38:01;;;;;;;2.40;0.60;;;24.80;99.90;;;;;;5079339;28;20225;-77
2023/04/05 05:40:32;;;;;;;3.67;0.70;;;24.90;99.90;;;;;;5089858;28;20199;-77
2023/04/05 05:43:03;;;;;;;3.95;0.90;;;24.90;99.90;;;;;;5084709;28;20203;-78
2023/04/05 05:45:35;;;;;;;5.82;1.05;;;25.00;99.90;;;;;;5081888;28;20229;-78
2023/04/05 05:48:06;;;;;;;3.30;0.60;;;25.00;99.90;;;;;;5071953;28;20578;-77
2023/04/05 05:50:40;;;;;;;1.90;0.60;;;25.00;99.90;;;;;;5081596;28;20207;-77
2023/04/05 05:53:11;;;;;;;3.38;0.70;;;25.00;99.90;;;;;;5088906;28;20289;-77
2023/04/05 05:55:42;;;;;;;4.95;0.77;;;25.10;99.90;;;;;;5077457;28;20662;-77
2023/04/05 05:58:13;;;;;;;3.65;0.80;;;25.10;99.90;;;;;;5082727;28;20207;-78
2023/04/05 06:00:45;;;;;;;3.45;0.60;;;25.10;99.90;;;;;;5085456;28;20622;-77
2023/04/05 06:03:17;;;;;;;4.18;0.60;;;25.20;99.90;;;;;;5087043;28;20196;-77
2023/04/05 06:05:56;;;;;;;1.77;0.60;;;25.50;99.90;;;;;;5083276;28;20248;-77
2023/04/05 06:08:28;;;;;;;3.28;0.52;;;25.60;99.90;;;;;;5084651;28;20206;-77
2023/04/05 06:10:59;;;;;;;0.85;0.40;;;25.80;99.90;;;;;;5089700;28;20199;-76
2023/04/05 06:13:30;;;;;;;2.85;0.75;;;26.00;99.90;;;;;;5085317;28;20188;-78
2023/04/05 06:16:04;;;;;;;2.22;0.50;;;26.00;99.90;;;;;;5087442;28;20195;-78
2023/04/05 06:18:35;;;;;;;1.58;0.50;;;26.00;99.90;;;;;;5089299;28;20673;-77
2023/04/05 06:21:08;;;;;;;1.27;0.38;;;26.10;99.90;;;;;;5083834;28;20678;-77
2023/04/05 06:23:40;;;;;;;2.35;0.57;;;26.20;99.90;;;;;;5088168;28;20206;-79
2023/04/05 06:26:17;;;;;;;4.18;0.70;;;26.10;99.90;;;;;;5094473;28;20587;-79
2023/04/05 06:28:49;;;;;;;4.15;0.80;;;26.30;99.90;;;;;;5095373;28;20199;-77
2023/04/05 06:31:22;;;;;;;1.90;0.60;;;26.30;99.90;;;;;;5097196;28;20202;-79
2023/04/05 06:33:53;;;;;;;2.38;0.57;;;26.40;99.90;;;;;;5075746;28;20287;-77
2023/04/05 06:36:27;;;;;;;3.70;0.75;;;26.30;99.90;;;;;;5079008;28;20275;-77
2023/04/05 06:38:58;;;;;;;1.92;0.60;;;26.30;99.90;;;;;;5079656;28;20223;-76
2023/04/05 06:41:29;;;;;;;5.05;0.98;;;26.40;99.90;;;;;;5078759;28;20192;-77
2023/04/05 06:44:01;;;;;;;3.53;0.93;;;26.30;99.90;;;;;;5075626;28;20192;-76
2023/04/05 06:46:32;;;;;;;3.90;0.73;;;26.30;99.90;;;;;;5075040;28;20226;-77
2023/04/05 06:49:05;;;;;;;2.75;0.57;;;26.20;99.90;;;;;;5074484;28;20286;-78
2023/04/05 06:51:38;;;;;;;3.80;0.70;;;26.20;99.90;;;;;;5083554;28;20199;-78
2023/04/05 06:54:09;;;;;;;4.38;0.77;;;26.20;99.90;;;;;;5074886;28;20208;-76
2023/04/05 06:56:40;;;;;;;2.20;0.70;;;26.10;99.90;;;;;;5073718;28;20203;-79
2023/04/05 06:59:11;;;;;;;5.82;0.95;;;26.00;99.90;;;;;;5072410;28;20192;-76
2023/04/05 07:01:42;;;;;;;3.13;0.50;;;25.90;99.90;;;;;;5073381;28;20539;-77
2023/04/05 07:04:14;;;;;;;2.67;0.70;;;25.80;99.90;;;;;;5074399;28;20192;-76
2023/04/05 07:06:47;;;;;;;2.72;0.60;;;25.80;99.90;;;;;;5080278;28;20211;-77
2023/04/05 07:09:23;;;;;;;3.17;0.55;;;25.60;99.90;;;;;;5081145;28;20198;-78
2023/04/05 07:11:54;;;;;;;2.20;0.52;;;25.50;99.90;;;;;;5089985;28;20250;-77
2023/04/05 07:14:25;;;;;;;2.25;0.70;;;25.40;99.90;;;;;;5074701;28;20231;-77
2023/04/05 07:16:56;;;;;;;1.23;0.50;;;25.30;99.90;;;;;;5088756;28;20745;-77
2023/04/05 07:19:27;;;;;;;2.97;0.82;;;25.10;99.90;;;;;;5079104;28;20199;-78
2023/04/05 07:22:00;;;;;;;3.25;0.95;;;24.90;99.90;;;;;;5074686;28;20472;-78
2023/04/05 07:24:31;;;;;;;3.03;0.82;;;24.90;99.90;;;;;;5081078;28;20196;-79
2023/04/05 07:27:03;;;;;;;3.22;0.70;;;24.70;99.90;;;;;;5073214;28;20239;-79
2023/04/05 07:29:39;;;;;;;3.42;0.82;;;24.70;99.90;;;;;;5072874;28;20254;-77
2023/04/05 07:32:10;;;;;;;2.85;0.60;;;24.50;99.90;;;;;;5072970;28;20202;-78
2023/04/05 07:34:41;;;;;;;1.90;0.70;;;24.40;99.90;;;;;;5074251;28;20203;-78
2023/04/05 07:37:14;;;;;;;2.28;0.60;;;24.20;99.90;;;;;;5086829;28;20232;-78
2023/04/05 07:39:45;;;;;;;2.63;0.70;;;24.00;99.90;;;;;;5085112;28;20207;-78
2023/04/05 07:42:16;;;;;;;1.48;0.60;;;23.80;99.90;;;;;;5086933;28;20203;-78
2023/04/05 07:44:47;;;;;;;3.08;0.73;;;23.70;99.90;;;;;;5076946;28;20222;-78
2023/04/05 07:47:19;;;;;;;1.98;0.70;;;23.50;99.90;;;;;;5092722;28;20231;-77
2023/04/05 07:49:50;;;;;;;2.60;0.70;;;23.50;99.90;;;;;;5080856;28;20214;-79
2023/04/05 07:52:23;;;;;;;2.20;0.70;;;23.40;99.90;;;;;;5082044;28;20700;-78
2023/04/05 07:54:54;;;;;;;1.25;0.52;;;23.40;99.90;;;;;;5072795;28;20218;-78
2023/04/05 07:57:26;;;;;;;2.15;0.63;;;23.30;99.90;;;;;;5079216;28;20192;-79
2023/04/05 07:59:57;;;;;;;2.65;0.95;;;23.20;99.90;;;;;;5085863;28;21434;-79
2023/04/05 08:02:28;;;;;;;2.92;1.20;;;23.10;99.90;;;;;;5079255;28;20222;-77
2023/04/05 08:04:59;;;;;;;4.97;1.55;;;23.10;99.90;;;;;;5086700;28;20195;-78
2023/04/05 08:07:32;;;;;;;3.58;2.13;;;23.10;99.90;;;;;;5073819;28;20232;-77
2023/04/05 08:10:03;;;;;;;2.65;1.00;;;23.10;99.90;;;;;;5072458;28;20671;-77
2023/04/05 08:12:35;;;;;;;2.05;0.80;;;23.00;99.90;;;;;;5071659;28;20200;-77
2023/04/05 08:15:07;;;;;;;1.92;0.80;;;23.00;99.90;;;;;;5071707;28;20227;-77
2023/04/05 08:17:38;;;;;;;3.33;0.90;;;23.00;99.90;;;;;;5072653;28;20596;-77
2023/04/05 08:20:10;;;;;;;3.40;0.80;;;23.00;99.90;;;;;;5072116;28;20210;-77
2023/04/05 08:22:43;;;;;;;5.53;1.30;;;23.00;99.90;;;;;;5077654;28;20199;-77
2023/04/05 08:25:14;;;;;;;3.20;1.02;;;23.00;99.90;;;;;;5080478;28;20199;-78
2023/04/05 08:27:45;;;;;;;4.60;1.15;;;23.00;99.90;;;;;;5086235;28;20764;-77
2023/04/05 08:30:18;;;;;;;3.05;1.10;;;22.90;99.90;;;;;;5084242;28;20651;-77
2023/04/05 08:32:49;;;;;;;6.00;1.83;;;22.90;99.90;;;;;;5072546;28;20203;-78
2023/04/05 08:35:20;;;;;;;4.22;1.48;;;22.90;99.90;;;;;;5089490;28;20195;-78
2023/04/05 08:37:55;;;;;;;3.45;1.23;;;22.90;99.90;;;;;;5083826;28;20208;-78
2023/04/05 08:40:38;;;;;;;3.85;1.52;;;22.90;99.90;;;;;;5078307;28;20191;-78
2023/04/05 08:43:15;;;;;;;5.65;1.70;;;22.90;99.90;;;;;;5080514;28;20210;-78
2023/04/05 08:45:51;;;;;;;4.45;1.45;;;22.80;99.90;;;;;;5091002;28;20199;-79
2023/04/05 08:48:22;;;;;;;4.10;1.70;;;22.80;99.90;;;;;;5090737;28;20236;-78
2023/04/05 08:50:54;;;;;;;5.50;1.80;;;22.70;99.90;;;;;;5081848;28;20203;-78
2023/04/05 08:53:28;;;;;;;4.70;1.80;;;22.70;99.90;;;;;;5078322;28;20199;-79
2023/04/05 08:56:02;;;;;;;4.65;1.75;;;22.70;99.90;;;;;;5090746;28;20191;-78
2023/04/05 08:58:35;;;;;;;5.22;1.90;;;22.70;99.90;;;;;;5089690;28;20203;-78
2023/04/05 09:01:08;;;;;;;7.95;1.85;;;22.70;99.90;;;;;;5091105;28;20658;-78
2023/04/05 09:03:45;;;;;;;4.63;1.80;;;22.70;99.90;;;;;;5078987;28;20195;-81
2023/04/05 09:06:17;;;;;;;4.72;1.52;;;22.60;99.90;;;;;;5076742;28;20203;-77
2023/04/05 09:08:51;;;;;;;4.90;1.50;;;22.60;99.90;;;;;;5078311;28;20223;-77
2023/04/05 09:11:24;;;;;;;4.47;1.80;;;22.60;99.90;;;;;;5087888;28;20210;-78
2023/04/05 09:13:55;;;;;;;5.38;1.95;;;22.60;99.90;;;;;;5076012;28;20206;-78
2023/04/05 09:16:28;;;;;;;5.38;1.77;;;22.60;99.90;;;;;;5069688;28;20736;-77
2023/04/05 09:18:59;;;;;;;5.32;1.73;;;22.60;99.90;;;;;;5079033;28;20218;-79
2023/04/05 09:21:31;;;;;;;5.85;1.77;;;22.60;99.90;;;;;;5073549;28;20195;-78
2023/04/05 09:24:04;;;;;;;6.78;1.90;;;22.60;99.90;;;;;;5089677;28;20278;-77
2023/04/05 09:26:35;;;;;;;5.53;1.92;;;22.60;99.90;;;;;;5085695;28;20564;-78
2023/04/05 09:29:06;;;;;;;5.53;2.03;;;22.60;99.90;;;;;;5081650;28;20238;-78
2023/04/05 09:31:38;;;;;;;5.60;1.92;;;22.60;99.90;;;;;;5088293;28;20208;-78
2023/04/05 09:34:09;;;;;;;5.07;1.90;;;22.60;99.90;;;;;;5081915;28;20206;-77
2023/04/05 09:36:47;;;;;;;5.40;2.10;;;22.50;99.90;;;;;;5070906;28;20297;-78
2023/04/05 09:39:22;;;;;;;5.32;2.55;;;22.60;99.90;;;;;;5078463;28;20210;-77
2023/04/05 09:42:09;;;;;;;6.50;2.63;;;22.50;99.90;;;;;;5082797;28;20281;-78
2023/04/05 09:45:01;;;;;;;7.15;2.65;;;22.60;99.90;;;;;;5082072;28;20202;-78
2023/04/05 09:47:33;;;;;;;7.18;2.25;;;22.50;99.90;;;;;;5075474;28;20216;-78
2023/04/05 09:50:06;;;;;;;6.05;2.28;;;22.50;99.90;;;;;;5088643;28;20195;-77
2023/04/05 09:52:37;;;;;;;6.18;2.22;;;22.50;99.90;;;;;;5072456;28;21278;-78
2023/04/05 09:55:11;;;;;;;5.45;2.00;;;22.50;99.90;;;;;;5080750;28;20203;-78
2023/04/05 09:57:44;;;;;;;5.00;1.88;;;22.40;99.90;;;;;;5090210;28;20206;-78
2023/04/05 10:00:23;;;;;;;6.03;2.45;;;22.40;99.90;;;;;;5078914;28;20280;-77
2023/04/05 10:02:57;;;;;;;4.63;2.10;;;22.30;99.90;;;;;;5071220;28;20242;-78
2023/04/05 10:05:32;;;;;;;4.18;1.83;;;22.40;99.90;;;;;;5088941;28;20563;-78
2023/04/05 10:08:06;;;;;;;5.50;1.80;;;22.40;99.90;;;;;;5073266;28;20223;-79
2023/04/05 10:10:47;;;;;;;3.90;1.80;;;22.40;99.90;;;;;;5086312;28;20215;-77
2023/04/05 10:13:19;;;;;;;4.80;1.88;;;22.30;99.90;;;;;;5070292;28;20196;-78
2023/04/05 10:15:52;;;;;;;4.63;1.85;;;22.30;99.90;;;;;;5082635;28;20254;-78
2023/04/05 10:18:31;;;;;;;4.30;1.70;;;22.30;99.90;;;;;;5081725;28;20199;-78
2023/04/05 10:21:03;;;;;;;4.90;1.92;;;22.30;99.90;;;;;;5099414;28;20263;-78
2023/04/05 10:23:36;;;;;;;8.15;2.20;;;22.30;99.90;;;;;;5092791;28;20658;-78
2023/04/05 10:26:15;;;;;;;6.68;1.92;;;22.20;99.90;;;;;;5091741;28;20205;-77
2023/04/05 10:28:49;;;;;;;6.38;2.15;;;22.20;99.90;;;;;;5093079;28;20321;-79
2023/04/05 10:31:27;;;;;;;5.90;1.85;;;22.30;99.90;;;;;;5088533;28;20192;-78
2023/04/05 10:34:02;;;;;;;5.47;1.70;;;22.20;99.90;;;;;;5080079;28;20252;-78
2023/04/05 10:36:41;;;;;;;7.05;1.90;;;22.20;99.90;;;;;;5086313;28;20220;-77
2023/04/05 10:39:19;;;;;;;6.82;2.17;;;22.30;99.90;;;;;;5076500;28;20207;-77
2023/04/05 10:41:56;;;;;;;6.38;2.50;;;22.30;99.90;;;;;;5077114;28;20198;-78
2023/04/05 10:44:27;;;;;;;5.47;2.30;;;22.20;99.90;;;;;;5075835;28;20278;-77
2023/04/05 10:47:00;;;;;;;6.68;2.47;;;22.30;99.90;;;;;;5072523;28;20567;-78
2023/04/05 10:49:38;;;;;;;7.68;2.75;;;22.30;99.90;;;;;;5076604;28;20282;-79
2023/04/05 10:52:11;;;;;;;8.10;2.72;;;22.20;99.90;;;;;;5077113;28;20595;-78
2023/04/05 10:54:44;;;;;;;10.45;3.58;;;22.20;99.90;;;;;;5081443;28;20198;-79
2023/04/05 10:57:21;;;;;;;8.65;3.00;;;22.20;99.90;;;;;;5072441;28;20207;-78
2023/04/05 10:59:53;;;;;;;11.70;2.97;;;22.10;99.90;;;;;;5076834;28;20191;-78
2023/04/05 11:02:25;;;;;;;7.75;2.63;;;22.00;99.90;;;;;;5082913;28;20199;-78
2023/04/05 11:04:58;;;;;;;8.55;2.65;;;22.00;99.90;;;;;;5095012;28;20199;-78
2023/04/05 11:07:43;;;;;;;6.68;2.45;;;22.00;99.90;;;;;;5075995;28;20219;-78
2023/04/05 11:10:20;;;;;;;6.88;2.40;;;21.90;99.90;;;;;;5086478;28;20208;-79
2023/04/05 11:13:10;;;;;;;9.10;2.63;;;21.90;99.90;;;;;;5084924;28;20315;-78
2023/04/05 11:15:42;;;;;;;6.57;2.30;;;21.90;99.90;;;;;;5097240;28;20604;-78
2023/04/05 11:18:24;;;;;;;5.97;2.38;;;21.90;99.90;;;;;;5091705;28;20196;-78
2023/04/05 11:20:56;;;;;;;8.18;2.47;;;21.80;99.90;;;;;;5077563;28;20204;-78
2023/04/05 11:23:27;;;;;;;5.82;2.20;;;21.80;99.90;;;;;;5079424;28;20217;-79
2023/04/05 11:26:05;;;;;;;8.70;2.03;;;21.80;99.90;;;;;;5096458;28;20405;-77
2023/04/05 11:28:42;;;;;;;7.82;2.13;;;21.80;99.90;;;;;;5080152;28;20230;-78
2023/04/05 11:31:17;;;;;;;7.20;2.90;;;21.70;99.90;;;;;;5086854;28;20266;-78
2023/04/05 11:34:09;;;;;;;5.80;2.50;;;21.70;99.90;;;;;;5083622;28;20195;-78
2023/04/05 11:36:45;;;;;;;5.57;2.22;;;21.60;99.90;;;;;;5078200;28;20309;-78
2023/04/05 11:39:29;;;;;;;5.70;2.17;;;21.60;99.90;;;;;;5092361;28;20662;-79
2023/04/05 11:42:02;;;;;;;5.43;2.13;;;21.60;99.90;;;;;;5080544;28;20205;-78
2023/04/05 11:44:44;;;;;;;6.30;2.13;;;21.60;99.90;;;;;;5092773;28;20203;-78
2023/04/05 11:47:15;;;;;;;6.22;1.90;;;21.60;99.90;;;;;;5081155;28;20206;-78
2023/04/05 11:49:50;;;;;;;7.22;2.40;;;21.50;99.90;;;;;;5089790;28;20320;-77
2023/04/05 11:52:23;;;;;;;4.93;1.85;;;21.50;99.90;;;;;;5091739;28;20199;-77
2023/04/05 11:54:54;;;;;;;6.97;2.20;;;21.40;99.90;;;;;;5085562;28;20239;-76
2023/04/05 11:57:25;;;;;;;4.45;1.88;;;21.40;99.90;;;;;;5078283;28;20199;-78
2023/04/05 11:59:58;;;;;;;7.88;2.25;;;21.40;99.90;;;;;;5078862;28;20209;-77
2023/04/05 12:02:31;;;;;;;4.55;1.90;;;21.40;99.90;;;;;;5082751;28;20211;-79
2023/04/05 12:05:03;;;;;;;4.47;1.67;;;21.30;99.90;;;;;;5079618;28;20195;-77
2023/04/05 12:07:35;;;;;;;5.20;1.50;;;21.40;99.90;;;;;;5091745;28;20187;-78
2023/04/05 12:10:10;;;;;;;5.50;1.98;;;21.40;99.90;;;;;;5072965;28;20192;-78
2023/04/05 12:12:43;;;;;;;5.30;1.88;;;21.30;99.90;;;;;;5077193;28;20190;-77
2023/04/05 12:15:17;;;;;;;3.55;1.35;;;21.40;99.90;;;;;;5088775;28;20231;-78
2023/04/05 12:17:50;;;;;;;3.92;1.50;;;21.50;99.90;;;;;;5072870;28;20196;-79
2023/04/05 12:20:23;;;;;;;5.25;1.83;;;21.50;99.90;;;;;;5086727;28;20195;-78
2023/04/05 12:22:56;;;;;;;5.60;1.80;;;21.40;99.90;;;;;;5083877;28;20196;-77
2023/04/05 12:25:27;;;;;;;5.07;1.92;;;21.40;99.90;;;;;;5084207;28;20191;-78
2023/04/05 12:27:58;;;;;;;4.70;1.58;;;21.40;99.90;;;;;;5098940;28;20234;-78
2023/04/05 12:30:35;;;;;;;5.53;1.90;;;21.30;99.90;;;;;;5083796;28;20207;-78
2023/04/05 12:33:10;;;;;;;4.38;1.58;;;21.30;99.90;;;;;;5077832;28;20200;-78
2023/04/05 12:35:42;;;;;;;5.85;1.90;;;21.30;99.90;;;;;;5082772;28;20195;-79
2023/04/05 12:38:16;;;;;;;8.60;1.50;;;21.20;99.90;;;;;;5079682;28;20205;-78
2023/04/05 12:40:47;;;;;;;5.22;1.60;;;21.20;99.90;;;;;;5080900;28;20539;-77
2023/04/05 12:43:19;;;;;;;5.05;1.70;;;21.10;99.90;;;;;;5084331;28;20274;-78
2023/04/05 12:45:55;;;;;;;4.50;1.50;;;21.10;99.90;;;;;;5091605;28;20729;-79
2023/04/05 12:48:26;;;;;;;5.07;1.70;;;21.10;99.90;;;;;;5085094;28;20213;-80
2023/04/05 12:50:57;;;;;;;7.38;1.60;;;21.10;99.90;;;;;;5080931;28;20701;-77
2023/04/05 12:53:32;;;;;;;4.40;1.50;;;21.10;99.90;;;;;;5082187;28;20555;-78
2023/04/05 12:56:03;;;;;;;5.53;1.58;;;21.10;99.90;;;;;;5086122;28;20195;-79
2023/04/05 12:58:39;;;;;;;4.32;1.70;;;21.10;99.90;;;;;;5086356;28;20210;-78
2023/04/05 13:01:12;;;;;;;3.22;1.45;;;21.10;99.90;;;;;;5084424;28;20285;-79
2023/04/05 13:03:45;;;;;;;3.67;1.40;;;21.10;99.90;;;;;;5089910;28;20576;-78
2023/04/05 13:06:16;;;;;;;5.47;1.73;;;21.00;99.90;;;;;;5087370;28;20199;-79
2023/04/05 13:08:49;;;;;;;4.55;1.70;;;21.00;99.90;;;;;;5081323;28;20227;-77
2023/04/05 13:11:20;;;;;;;6.00;2.00;;;21.00;99.90;;;;;;5077457;28;20195;-79
2023/04/05 13:13:51;;;;;;;4.40;1.52;;;20.90;99.90;;;;;;5078790;28;20192;-77
2023/04/05 13:16:24;;;;;;;6.22;1.90;;;20.90;99.90;;;;;;5079218;28;20654;-79
2023/04/05 13:18:55;;;;;;;5.03;2.00;;;20.90;99.90;;;;;;5076977;28;20215;-77